Time;durP1;ratioP1;P1;durP2;ratioP2;P2;SDS_P1;SDS_P2;PMS_P1;PMS_P2;Temp;Humidity;BMP_temperature;BMP_pressure;BME280_temperature;BME280_humidity;BME280_pressure;Samples;Min_cycle;Max_cycle;Signal;HPM_P1;HPM_P2
2023/06/24 00:00:57;;;;;;;;;;;;;;;;;;5008313;28;19925;-87
2023/06/24 00:03:25;;;;;;;;;;;;;;;;;;5006474;28;19925;-86
2023/06/24 00:06:03;;;;;;;;;;;;;;;;;;5005523;28;19925;-89
2023/06/24 00:08:34;;;;;;;;;;;;;;;;;;5008137;28;19941;-86
2023/06/24 00:11:02;;;;;;;;;;;;;;;;;;5007849;28;19941;-86
2023/06/24 00:13:29;;;;;;;;;;;;;;;;;;5006200;28;20596;-86
2023/06/24 00:15:57;;;;;;;;;;;;;;;;;;5010052;28;19933;-86
2023/06/24 00:18:28;;;;;;;;;;;;;;;;;;5014620;28;19925;-86
2023/06/24 00:20:56;;;;;;;;;;;;;;;;;;5007091;28;19930;-87
2023/06/24 00:23:24;;;;;;;;;;;;;;;;;;5006949;28;19933;-86
2023/06/24 00:25:57;;;;;;;;;;;;;;;;;;5012857;28;19933;-86
2023/06/24 00:28:27;;;;;;;;;;;;;;;;;;5008903;28;19929;-86
2023/06/24 00:31:12;;;;;;;;;;;;;;;;;;5006485;28;20310;-85
2023/06/24 00:33:42;;;;;;;;;;;;;;;;;;5009225;28;19926;-86
2023/06/24 00:36:11;;;;;;;;;;;;;;;;;;5007002;28;20306;-86
2023/06/24 00:38:39;;;;;;;;;;;;;;;;;;5007969;28;19929;-85
2023/06/24 00:41:06;;;;;;;;;;;;;;;;;;5006135;28;20741;-85
2023/06/24 00:43:34;;;;;;;;;;;;;;;;;;5009099;28;19933;-86
2023/06/24 00:46:02;;;;;;;;;;;;;;;;;;5007770;28;19929;-85
2023/06/24 00:48:34;;;;;;;;;;;;;;;;;;5005306;28;19930;-85
2023/06/24 00:51:02;;;;;;;;;;;;;;;;;;5014103;28;19936;-86
2023/06/24 00:53:29;;;;;;;;;;;;;;;;;;5008487;28;19930;-85
2023/06/24 00:56:01;;;;;;;;;;;;;;;;;;5008743;28;19933;-85
2023/06/24 00:58:30;;;;;;;;;;;;;;;;;;4999492;28;19929;-86
2023/06/24 01:00:57;;;;;;;;;;;;;;;;;;5005162;28;19933;-86
2023/06/24 01:03:26;;;;;;;;;;;;;;;;;;5022252;28;19933;-85
2023/06/24 01:05:54;;;;;;;;;;;;;;;;;;5014378;28;19960;-85
2023/06/24 01:08:26;;;;;;;;;;;;;;;;;;5004419;28;19933;-85
2023/06/24 01:10:54;;;;;;;;;;;;;;;;;;5023191;28;19937;-85
2023/06/24 01:13:22;;;;;;;;;;;;;;;;;;5008631;28;20325;-85
2023/06/24 01:15:49;;;;;;;;;;;;;;;;;;5009932;28;19930;-85
2023/06/24 01:18:17;;;;;;;;;;;;;;;;;;5007373;28;19940;-85
2023/06/24 01:20:46;;;;;;;;;;;;;;;;;;5002583;28;19937;-85
2023/06/24 01:23:13;;;;;;;;;;;;;;;;;;5006604;28;19926;-87
2023/06/24 01:25:46;;;;;;;;;;;;;;;;;;5006245;28;20409;-86
2023/06/24 01:28:13;;;;;;;;;;;;;;;;;;5007909;28;19929;-84
2023/06/24 01:30:42;;;;;;;;;;;;;;;;;;5005167;28;19925;-84
2023/06/24 01:33:09;;;;;;;;;;;;;;;;;;5018339;28;19929;-84
2023/06/24 01:35:37;;;;;;;;;;;;;;;;;;5001683;28;19933;-84
2023/06/24 01:38:04;;;;;;;;;;;;;;;;;;5000633;28;19937;-86
2023/06/24 01:40:32;;;;;;;;;;;;;;;;;;4995113;28;20382;-84
2023/06/24 01:42:59;;;;;;;;;;;;;;;;;;5002811;28;19937;-84
2023/06/24 01:45:27;;;;;;;;;;;;;;;;;;5022638;28;19948;-84
2023/06/24 01:47:59;;;;;;;;;;;;;;;;;;5019003;28;19929;-84
2023/06/24 01:50:27;;;;;;;;;;;;;;;;;;5010778;28;19940;-85
2023/06/24 01:53:00;;;;;;;;;;;;;;;;;;5009824;28;19933;-85
2023/06/24 01:55:27;;;;;;;;;;;;;;;;;;5022211;28;20293;-85
2023/06/24 01:57:55;;;;;;;;;;;;;;;;;;5000508;28;20294;-86
2023/06/24 02:00:23;;;;;;;;;;;;;;;;;;5009929;28;19930;-84
2023/06/24 02:02:50;;;;;;;;;;;;;;;;;;5007447;28;19930;-85
2023/06/24 02:05:18;;;;;;;;;;;;;;;;;;5010989;28;19934;-85
2023/06/24 02:07:45;;;;;;;;;;;;;;;;;;5006872;28;19941;-87
2023/06/24 02:10:13;;;;;;;;;;;;;;;;;;5010710;28;19929;-84
2023/06/24 02:12:41;;;;;;;;;;;;;;;;;;5009397;28;19936;-85
2023/06/24 02:15:08;;;;;;;;;;;;;;;;;;5005119;28;19933;-85
2023/06/24 02:17:36;;;;;;;;;;;;;;;;;;5000336;28;19929;-85
2023/06/24 02:20:03;;;;;;;;;;;;;;;;;;5012414;28;19929;-85
2023/06/24 02:22:31;;;;;;;;;;;;;;;;;;5003718;28;20585;-86
2023/06/24 02:24:59;;;;;;;;;;;;;;;;;;5009047;28;19925;-85
2023/06/24 02:27:26;;;;;;;;;;;;;;;;;;5027120;28;19926;-86
2023/06/24 02:29:54;;;;;;;;;;;;;;;;;;5019150;28;19993;-86
2023/06/24 02:32:22;;;;;;;;;;;;;;;;;;5012198;28;19937;-86
2023/06/24 02:34:49;;;;;;;;;;;;;;;;;;5000173;28;19926;-86
2023/06/24 02:37:17;;;;;;;;;;;;;;;;;;5008147;28;19933;-86
2023/06/24 02:39:45;;;;;;;;;;;;;;;;;;5018534;28;20672;-86
2023/06/24 02:42:13;;;;;;;;;;;;;;;;;;5017257;28;20274;-87
2023/06/24 02:44:41;;;;;;;;;;;;;;;;;;5012278;28;20342;-86
2023/06/24 02:47:08;;;;;;;;;;;;;;;;;;5008387;28;20832;-85
2023/06/24 02:49:42;;;;;;;;;;;;;;;;;;5001243;28;19925;-86
2023/06/24 02:52:09;;;;;;;;;;;;;;;;;;5009827;28;19925;-86
2023/06/24 02:54:39;;;;;;;;;;;;;;;;;;5008607;28;19933;-86
2023/06/24 02:57:29;;;;;;;;;;;;;;;;;;5001351;28;19933;-86
2023/06/24 03:00:26;;;;;;;;;;;;;;;;;;5001286;28;19929;-86
2023/06/24 03:03:16;;;;;;;;;;;;;;;;;;5005210;28;19930;-87
2023/06/24 03:05:56;;;;;;;;;;;;;;;;;;5007713;28;20396;-88
2023/06/24 03:08:25;;;;;;;;;;;;;;;;;;5015431;28;19926;-88
2023/06/24 03:10:58;;;;;;;;;;;;;;;;;;5008567;28;19929;-85
2023/06/24 03:13:28;;;;;;;;;;;;;;;;;;5011695;28;19929;-86
2023/06/24 03:16:05;;;;;;;;;;;;;;;;;;5006540;28;19933;-86
2023/06/24 03:18:40;;;;;;;;;;;;;;;;;;5009484;28;19934;-87
2023/06/24 03:21:07;;;;;;;;;;;;;;;;;;5017328;28;19926;-86
2023/06/24 03:23:35;;;;;;;;;;;;;;;;;;5003731;28;20377;-86
2023/06/24 03:26:03;;;;;;;;;;;;;;;;;;5010589;28;19925;-86
2023/06/24 03:28:31;;;;;;;;;;;;;;;;;;5006775;28;19926;-85
2023/06/24 03:31:10;;;;;;;;;;;;;;;;;;4998105;28;19926;-86
2023/06/24 03:33:38;;;;;;;;;;;;;;;;;;5007366;28;19926;-85
2023/06/24 03:36:11;;;;;;;;;;;;;;;;;;5008907;28;19932;-85
2023/06/24 03:38:38;;;;;;;;;;;;;;;;;;5011524;28;19929;-85
2023/06/24 03:41:07;;;;;;;;;;;;;;;;;;5021241;28;19926;-85
2023/06/24 03:43:34;;;;;;;;;;;;;;;;;;4998729;28;20313;-85
2023/06/24 03:46:02;;;;;;;;;;;;;;;;;;4999333;28;19933;-86
2023/06/24 03:48:29;;;;;;;;;;;;;;;;;;5005753;28;20310;-86
2023/06/24 03:50:57;;;;;;;;;;;;;;;;;;5010766;28;19936;-85
2023/06/24 03:53:26;;;;;;;;;;;;;;;;;;5010829;28;19925;-84
2023/06/24 03:55:54;;;;;;;;;;;;;;;;;;5019309;28;19926;-85
2023/06/24 03:58:21;;;;;;;;;;;;;;;;;;5010747;28;19925;-85
2023/06/24 04:00:50;;;;;;;;;;;;;;;;;;5006385;28;19929;-85
2023/06/24 04:03:18;;;;;;;;;;;;;;;;;;4999799;28;19930;-86
2023/06/24 04:05:45;;;;;;;;;;;;;;;;;;5010255;28;20400;-85
2023/06/24 04:08:13;;;;;;;;;;;;;;;;;;5011528;28;19930;-85
2023/06/24 04:10:43;;;;;;;;;;;;;;;;;;5005443;28;20401;-85
2023/06/24 04:13:12;;;;;;;;;;;;;;;;;;4995520;28;19929;-84
2023/06/24 04:15:39;;;;;;;;;;;;;;;;;;5019668;28;20561;-86
2023/06/24 04:18:07;;;;;;;;;;;;;;;;;;5016370;28;19941;-85
2023/06/24 04:20:35;;;;;;;;;;;;;;;;;;5017789;28;19925;-85
2023/06/24 04:23:03;;;;;;;;;;;;;;;;;;5019505;28;19932;-86
2023/06/24 04:25:31;;;;;;;;;;;;;;;;;;5009232;28;19933;-85
2023/06/24 04:27:58;;;;;;;;;;;;;;;;;;5020917;28;19933;-86
2023/06/24 04:30:26;;;;;;;;;;;;;;;;;;5003312;28;19925;-85
2023/06/24 04:32:53;;;;;;;;;;;;;;;;;;5009528;28;19927;-86
2023/06/24 04:35:21;;;;;;;;;;;;;;;;;;5005488;28;19937;-86
2023/06/24 04:37:49;;;;;;;;;;;;;;;;;;5001921;28;19932;-86
2023/06/24 04:40:17;;;;;;;;;;;;;;;;;;5004208;28;19930;-85
2023/06/24 04:42:45;;;;;;;;;;;;;;;;;;5010049;28;20390;-86
2023/06/24 04:45:12;;;;;;;;;;;;;;;;;;5006785;28;20378;-86
2023/06/24 04:47:40;;;;;;;;;;;;;;;;;;5015445;28;19930;-86
2023/06/24 04:50:12;;;;;;;;;;;;;;;;;;5012257;28;20321;-87
2023/06/24 04:52:40;;;;;;;;;;;;;;;;;;5002723;28;19933;-84
2023/06/24 04:55:07;;;;;;;;;;;;;;;;;;5004195;28;19926;-85
2023/06/24 04:57:35;;;;;;;;;;;;;;;;;;5016116;28;20570;-85
2023/06/24 05:00:08;;;;;;;;;;;;;;;;;;5007000;28;20428;-84
2023/06/24 05:02:35;;;;;;;;;;;;;;;;;;4999151;28;19930;-85
2023/06/24 05:05:03;;;;;;;;;;;;;;;;;;4992486;28;19925;-85
2023/06/24 05:07:30;;;;;;;;;;;;;;;;;;5001721;28;19925;-85
2023/06/24 05:09:58;;;;;;;;;;;;;;;;;;5013722;28;19925;-86
2023/06/24 05:12:26;;;;;;;;;;;;;;;;;;5006311;28;19925;-86
2023/06/24 05:14:53;;;;;;;;;;;;;;;;;;5006408;28;19925;-85
2023/06/24 05:17:21;;;;;;;;;;;;;;;;;;5011246;28;20380;-86
2023/06/24 05:19:48;;;;;;;;;;;;;;;;;;5022187;28;19925;-86
2023/06/24 05:22:16;;;;;;;;;;;;;;;;;;5020379;28;19925;-84
2023/06/24 05:24:44;;;;;;;;;;;;;;;;;;4994191;28;19933;-87
2023/06/24 05:27:11;;;;;;;;;;;;;;;;;;4999086;28;19936;-87
2023/06/24 05:29:44;;;;;;;;;;;;;;;;;;5005345;28;19925;-86
2023/06/24 05:32:11;;;;;;;;;;;;;;;;;;5008079;28;20309;-85
2023/06/24 05:34:39;;;;;;;;;;;;;;;;;;5020127;28;19924;-86
2023/06/24 05:37:06;;;;;;;;;;;;;;;;;;5001475;28;19929;-86
2023/06/24 05:39:34;;;;;;;;;;;;;;;;;;5005566;28;19925;-84
2023/06/24 05:42:02;;;;;;;;;;;;;;;;;;5003424;28;19930;-83
2023/06/24 05:44:29;;;;;;;;;;;;;;;;;;5001151;28;19926;-85
2023/06/24 05:46:57;;;;;;;;;;;;;;;;;;5012817;28;20285;-88
2023/06/24 05:49:24;;;;;;;;;;;;;;;;;;5001125;28;19938;-86
2023/06/24 05:51:52;;;;;;;;;;;;;;;;;;5024187;28;19926;-85
2023/06/24 05:54:19;;;;;;;;;;;;;;;;;;5003999;28;19941;-86
2023/06/24 05:56:47;;;;;;;;;;;;;;;;;;5007405;28;19930;-86
2023/06/24 05:59:20;;;;;;;;;;;;;;;;;;5019646;28;20381;-85
2023/06/24 06:01:47;;;;;;;;;;;;;;;;;;5014275;28;19930;-88
2023/06/24 06:04:15;;;;;;;;;;;;;;;;;;5010561;28;19933;-88
2023/06/24 06:06:42;;;;;;;;;;;;;;;;;;5016177;28;19925;-87
2023/06/24 06:09:10;;;;;;;;;;;;;;;;;;5004622;28;19930;-86
2023/06/24 06:11:37;;;;;;;;;;;;;;;;;;5008585;28;19925;-86
2023/06/24 06:14:05;;;;;;;;;;;;;;;;;;5006646;28;19926;-87
2023/06/24 06:16:33;;;;;;;;;;;;;;;;;;5008005;28;19933;-88
2023/06/24 06:19:00;;;;;;;;;;;;;;;;;;5015376;28;20373;-87
2023/06/24 06:21:28;;;;;;;;;;;;;;;;;;5012285;28;19933;-87
2023/06/24 06:23:55;;;;;;;;;;;;;;;;;;5005570;28;19933;-87
2023/06/24 06:26:23;;;;;;;;;;;;;;;;;;5004473;28;20301;-86
2023/06/24 06:28:53;;;;;;;;;;;;;;;;;;5004062;28;19926;-86
2023/06/24 06:31:25;;;;;;;;;;;;;;;;;;5027024;28;19932;-87
2023/06/24 06:33:58;;;;;;;;;;;;;;;;;;5001811;28;19933;-87
2023/06/24 06:36:26;;;;;;;;;;;;;;;;;;5009230;28;19925;-87
2023/06/24 06:38:53;;;;;;;;;;;;;;;;;;5008357;28;19941;-86
2023/06/24 06:41:24;;;;;;;;;;;;;;;;;;5000016;28;19926;-85
2023/06/24 06:43:51;;;;;;;;;;;;;;;;;;5010357;28;19934;-86
2023/06/24 06:46:19;;;;;;;;;;;;;;;;;;5012160;28;19933;-86
2023/06/24 06:48:46;;;;;;;;;;;;;;;;;;5014459;28;19929;-88
2023/06/24 06:51:14;;;;;;;;;;;;;;;;;;5013226;28;20390;-87
2023/06/24 06:53:42;;;;;;;;;;;;;;;;;;5032056;28;19929;-89
2023/06/24 06:56:09;;;;;;;;;;;;;;;;;;5003077;28;19929;-88
2023/06/24 06:58:38;;;;;;;;;;;;;;;;;;5010945;28;19926;-88
2023/06/24 07:01:05;;;;;;;;;;;;;;;;;;5007707;28;19941;-86
2023/06/24 07:03:33;;;;;;;;;;;;;;;;;;5030725;28;19929;-88
2023/06/24 07:06:01;;;;;;;;;;;;;;;;;;5011348;28;19930;-89
2023/06/24 07:08:28;;;;;;;;;;;;;;;;;;5021382;28;19929;-88
2023/06/24 07:11:01;;;;;;;;;;;;;;;;;;5007247;28;19937;-88
2023/06/24 07:13:28;;;;;;;;;;;;;;;;;;5007972;28;19945;-86
2023/06/24 07:15:56;;;;;;;;;;;;;;;;;;5001733;28;20293;-89
2023/06/24 07:18:23;;;;;;;;;;;;;;;;;;5005083;28;19925;-86
2023/06/24 07:20:51;;;;;;;;;;;;;;;;;;5005198;28;19937;-90
2023/06/24 07:23:19;;;;;;;;;;;;;;;;;;5004928;28;19929;-88
2023/06/24 07:25:57;;;;;;;;;;;;;;;;;;5003293;28;19930;-88
2023/06/24 07:28:25;;;;;;;;;;;;;;;;;;5005708;28;19930;-89
2023/06/24 07:30:52;;;;;;;;;;;;;;;;;;5010118;28;19929;-88
2023/06/24 07:33:38;;;;;;;;;;;;;;;;;;5006728;28;19926;-89
2023/06/24 07:36:06;;;;;;;;;;;;;;;;;;5005867;28;19932;-83
2023/06/24 07:38:33;;;;;;;;;;;;;;;;;;5015962;28;19953;-88
2023/06/24 07:41:01;;;;;;;;;;;;;;;;;;5009287;28;19925;-85
2023/06/24 07:43:28;;;;;;;;;;;;;;;;;;5005761;28;19948;-88
2023/06/24 07:45:56;;;;;;;;;;;;;;;;;;5004692;28;20305;-86
2023/06/24 07:48:23;;;;;;;;;;;;;;;;;;5007591;28;19930;-88
2023/06/24 07:50:56;;;;;;;;;;;;;;;;;;5006630;28;19930;-88
2023/06/24 07:53:23;;;;;;;;;;;;;;;;;;5004451;28;19936;-88
2023/06/24 07:55:56;;;;;;;;;;;;;;;;;;5002120;28;19944;-87
2023/06/24 07:58:24;;;;;;;;;;;;;;;;;;5005144;28;19940;-88
2023/06/24 08:00:51;;;;;;;;;;;;;;;;;;5006164;28;19925;-86
2023/06/24 08:03:19;;;;;;;;;;;;;;;;;;5013494;28;19925;-87
2023/06/24 08:05:46;;;;;;;;;;;;;;;;;;5010406;28;19941;-87
2023/06/24 08:08:14;;;;;;;;;;;;;;;;;;5009370;28;20278;-86
2023/06/24 08:10:41;;;;;;;;;;;;;;;;;;5000533;28;19926;-87
2023/06/24 08:13:09;;;;;;;;;;;;;;;;;;5010195;28;19929;-87
2023/06/24 08:15:36;;;;;;;;;;;;;;;;;;5003790;28;19925;-87
2023/06/24 08:18:04;;;;;;;;;;;;;;;;;;5006024;28;19930;-87
2023/06/24 08:20:31;;;;;;;;;;;;;;;;;;5000938;28;19925;-85
2023/06/24 08:22:59;;;;;;;;;;;;;;;;;;5003564;28;19926;-88
2023/06/24 08:25:26;;;;;;;;;;;;;;;;;;5004590;28;20294;-85
2023/06/24 08:27:59;;;;;;;;;;;;;;;;;;5008798;28;19925;-87
2023/06/24 08:30:27;;;;;;;;;;;;;;;;;;5005930;28;19932;-87
2023/06/24 08:32:54;;;;;;;;;;;;;;;;;;5005390;28;19933;-88
2023/06/24 08:35:40;;;;;;;;;;;;;;;;;;4998461;28;19929;-87
2023/06/24 08:38:07;;;;;;;;;;;;;;;;;;5006690;28;20318;-89
2023/06/24 08:40:35;;;;;;;;;;;;;;;;;;5023354;28;19936;-87
2023/06/24 08:43:02;;;;;;;;;;;;;;;;;;5003941;28;19936;-84
2023/06/24 08:45:30;;;;;;;;;;;;;;;;;;5000991;28;19929;-86
2023/06/24 08:47:57;;;;;;;;;;;;;;;;;;4999150;28;19937;-87
2023/06/24 08:50:25;;;;;;;;;;;;;;;;;;5011297;28;19929;-88
2023/06/24 08:52:52;;;;;;;;;;;;;;;;;;5024770;28;19937;-84
2023/06/24 08:55:20;;;;;;;;;;;;;;;;;;5018561;28;19941;-85
2023/06/24 08:57:48;;;;;;;;;;;;;;;;;;5012178;28;20755;-86
2023/06/24 09:00:15;;;;;;;;;;;;;;;;;;5004799;28;19974;-88
2023/06/24 09:02:43;;;;;;;;;;;;;;;;;;5010766;28;19936;-88
2023/06/24 09:05:10;;;;;;;;;;;;;;;;;;5008773;28;19941;-88
2023/06/24 09:07:38;;;;;;;;;;;;;;;;;;5007595;28;20397;-88
2023/06/24 09:10:06;;;;;;;;;;;;;;;;;;5008623;28;19925;-87
2023/06/24 09:12:34;;;;;;;;;;;;;;;;;;5007123;28;19934;-89
2023/06/24 09:15:01;;;;;;;;;;;;;;;;;;5005396;28;19925;-88
2023/06/24 09:17:29;;;;;;;;;;;;;;;;;;5006651;28;19925;-88
2023/06/24 09:19:56;;;;;;;;;;;;;;;;;;5016323;28;20617;-89
2023/06/24 09:22:24;;;;;;;;;;;;;;;;;;5005394;28;19926;-87
2023/06/24 09:24:52;;;;;;;;;;;;;;;;;;5001205;28;19933;-86
2023/06/24 09:27:21;;;;;;;;;;;;;;;;;;5009309;28;20529;-87
2023/06/24 09:29:49;;;;;;;;;;;;;;;;;;5006412;28;19933;-86
2023/06/24 09:32:16;;;;;;;;;;;;;;;;;;5006688;28;19930;-86
2023/06/24 09:34:44;;;;;;;;;;;;;;;;;;5008159;28;19933;-86
2023/06/24 09:37:12;;;;;;;;;;;;;;;;;;5005324;28;20009;-85
2023/06/24 09:39:39;;;;;;;;;;;;;;;;;;5020845;28;20274;-86
2023/06/24 09:42:24;;;;;;;;;;;;;;;;;;5014370;28;20407;-87
2023/06/24 09:44:52;;;;;;;;;;;;;;;;;;5002553;28;19925;-83
2023/06/24 09:47:20;;;;;;;;;;;;;;;;;;5008047;28;19929;-86
2023/06/24 09:49:47;;;;;;;;;;;;;;;;;;5017670;28;19941;-87
2023/06/24 09:52:16;;;;;;;;;;;;;;;;;;5003412;28;19925;-87
2023/06/24 09:54:44;;;;;;;;;;;;;;;;;;5003348;28;20390;-88
2023/06/24 09:57:11;;;;;;;;;;;;;;;;;;5010269;28;19940;-86
2023/06/24 09:59:39;;;;;;;;;;;;;;;;;;5003778;28;20305;-88
2023/06/24 10:02:06;;;;;;;;;;;;;;;;;;5015356;28;19926;-85
2023/06/24 10:04:34;;;;;;;;;;;;;;;;;;5027201;28;19929;-85
2023/06/24 10:07:02;;;;;;;;;;;;;;;;;;5019627;28;19930;-86
2023/06/24 10:09:30;;;;;;;;;;;;;;;;;;5020964;28;19929;-85
2023/06/24 10:11:57;;;;;;;;;;;;;;;;;;5005939;28;20382;-86
2023/06/24 10:14:25;;;;;;;;;;;;;;;;;;5014778;28;19937;-84
2023/06/24 10:16:52;;;;;;;;;;;;;;;;;;5003093;28;20306;-84
2023/06/24 10:19:25;;;;;;;;;;;;;;;;;;5026205;28;19929;-87
2023/06/24 10:21:52;;;;;;;;;;;;;;;;;;5016352;28;19926;-86
2023/06/24 10:24:20;;;;;;;;;;;;;;;;;;5002345;28;19929;-83
2023/06/24 10:26:48;;;;;;;;;;;;;;;;;;5020971;28;19929;-86
2023/06/24 10:29:17;;;;;;;;;;;;;;;;;;4992067;28;19941;-89
2023/06/24 10:31:45;;;;;;;;;;;;;;;;;;4994001;28;19976;-86
2023/06/24 10:34:12;;;;;;;;;;;;;;;;;;4991216;28;20447;-86
2023/06/24 10:36:40;;;;;;;;;;;;;;;;;;4982653;28;19933;-85
2023/06/24 10:39:25;;;;;;;;;;;;;;;;;;4986508;28;19941;-87
2023/06/24 10:41:55;;;;;;;;;;;;;;;;;;4987861;28;19937;-87
2023/06/24 10:44:27;;;;;;;;;;;;;;;;;;4978892;28;19933;-88
2023/06/24 10:46:55;;;;;;;;;;;;;;;;;;4984894;28;21487;-87
2023/06/24 10:49:23;;;;;;;;;;;;;;;;;;4995131;28;19941;-88
2023/06/24 10:51:50;;;;;;;;;;;;;;;;;;4979779;28;20395;-89
2023/06/24 10:54:18;;;;;;;;;;;;;;;;;;4983655;28;19925;-88
2023/06/24 10:56:46;;;;;;;;;;;;;;;;;;4986241;28;19933;-89
2023/06/24 10:59:13;;;;;;;;;;;;;;;;;;4995032;28;19929;-85
2023/06/24 11:01:41;;;;;;;;;;;;;;;;;;4996879;28;19940;-84
2023/06/24 11:04:08;;;;;;;;;;;;;;;;;;4993287;28;19948;-85
2023/06/24 11:06:36;;;;;;;;;;;;;;;;;;4992145;28;19930;-89
2023/06/24 11:09:04;;;;;;;;;;;;;;;;;;4985996;28;19944;-89
2023/06/24 11:11:31;;;;;;;;;;;;;;;;;;4982036;28;19933;-88
2023/06/24 11:13:59;;;;;;;;;;;;;;;;;;4986392;28;19940;-82
2023/06/24 11:16:26;;;;;;;;;;;;;;;;;;4985144;28;19934;-87
2023/06/24 11:18:54;;;;;;;;;;;;;;;;;;4982485;28;19934;-86
2023/06/24 11:21:21;;;;;;;;;;;;;;;;;;4985421;28;21461;-88
2023/06/24 11:23:49;;;;;;;;;;;;;;;;;;4990156;28;19933;-86
2023/06/24 11:26:16;;;;;;;;;;;;;;;;;;4994186;28;20930;-90
2023/06/24 11:28:44;;;;;;;;;;;;;;;;;;4996478;28;19933;-88
2023/06/24 11:31:12;;;;;;;;;;;;;;;;;;4985923;28;19945;-86
2023/06/24 11:33:40;;;;;;;;;;;;;;;;;;4997527;28;19940;-88
2023/06/24 11:36:07;;;;;;;;;;;;;;;;;;4978942;28;20468;-83
2023/06/24 11:38:35;;;;;;;;;;;;;;;;;;4981463;28;19944;-88
2023/06/24 11:41:02;;;;;;;;;;;;;;;;;;4980485;28;19934;-88
2023/06/24 11:43:30;;;;;;;;;;;;;;;;;;4985905;28;20313;-85
2023/06/24 11:45:57;;;;;;;;;;;;;;;;;;4982546;28;19933;-88
2023/06/24 11:48:31;;;;;;;;;;;;;;;;;;4983681;28;19940;-88
2023/06/24 11:51:00;;;;;;;;;;;;;;;;;;4983544;28;19933;-89
2023/06/24 11:53:28;;;;;;;;;;;;;;;;;;4974607;28;19960;-87
2023/06/24 11:55:56;;;;;;;;;;;;;;;;;;4991806;28;20313;-88
2023/06/24 11:58:23;;;;;;;;;;;;;;;;;;4989421;28;19934;-87
2023/06/24 12:00:53;;;;;;;;;;;;;;;;;;4983718;28;19940;-83
2023/06/24 12:03:21;;;;;;;;;;;;;;;;;;4983252;28;19934;-89
2023/06/24 12:05:48;;;;;;;;;;;;;;;;;;5023324;23;19933;-88
2023/06/24 12:08:16;;;;;;;;;;;;;;;;;;4984340;28;20753;-92
2023/06/24 12:10:44;;;;;;;;;;;;;;;;;;5006761;28;19961;-92
2023/06/24 12:13:12;;;;;;;;;;;;;;;;;;4975857;28;20813;-93
2023/06/24 12:16:01;;;;;;;;;;;;;;;;;;5005076;28;19933;-90
2023/06/24 12:24:15;;;;;;;;;;;;;;;;;;4977553;28;19933;-92
2023/06/24 12:27:04;;;;;;;;;;;;;;;;;;4968881;28;19934;-90
2023/06/24 12:29:44;;;;;;;;;;;;;;;;;;4945696;28;19921;-93
2023/06/24 12:32:28;;;;;;;;;;;;;;;;;;4967453;28;19929;-91
2023/06/24 12:35:08;;;;;;;;;;;;;;;;;;4985542;28;19940;-93
2023/06/24 12:38:08;;;;;;;;;;;;;;;;;;4982040;28;19933;-91
2023/06/24 12:47:16;;;;;;;;;;;;;;;;;;4897801;28;20307;-93
2023/06/24 12:49:59;;;;;;;;;;;;;;;;;;4973951;28;19933;-92
2023/06/24 12:55:40;;;;;;;;;;;;;;;;;;4974389;28;19929;-91
2023/06/24 13:05:06;;;;;;;;;;;;;;;;;;4902125;29;20717;-92
2023/06/24 13:07:56;;;;;;;;;;;;;;;;;;4898220;29;19939;-90
2023/06/24 13:13:47;;;;;;;;;;;;;;;;;;4920128;29;19927;-90
2023/06/24 13:19:21;;;;;;;;;;;;;;;;;;4939998;28;20329;-91
2023/06/24 13:22:12;;;;;;;;;;;;;;;;;;4947608;28;19937;-91
2023/06/24 13:24:49;;;;;;;;;;;;;;;;;;4963226;28;19930;-90
2023/06/24 13:27:40;;;;;;;;;;;;;;;;;;4946598;29;19927;-91
2023/06/24 13:30:51;;;;;;;;;;;;;;;;;;;;;
2023/06/24 13:33:43;;;;;;;;;;;;;;;;;;5005950;28;19929;-90
2023/06/24 13:36:29;;;;;;;;;;;;;;;;;;5038454;28;19925;-92
2023/06/24 13:39:23;;;;;;;;;;;;;;;;;;5039802;28;20442;-90
2023/06/24 13:42:14;;;;;;;;;;;;;;;;;;5022341;28;19930;-91
2023/06/24 13:48:28;;;;;;;;;;;;;;;;;;5010280;28;19930;-91
2023/06/24 13:51:29;;;;;;;;;;;;;;;;;;5004557;28;19929;-91
2023/06/24 13:54:53;;;;;;;;;;;;;;;;;;5031984;28;19930;-91
2023/06/24 13:57:40;;;;;;;;;;;;;;;;;;5009379;28;19933;-91
2023/06/24 14:00:51;;;;;;;;;;;;;;;;;;4993546;28;19926;-90
2023/06/24 14:03:46;;;;;;;;;;;;;;;;;;;;;
2023/06/24 14:06:37;;;;;;;;;;;;;;;;;;5001665;28;19930;-91
2023/06/24 14:09:09;;;;;;;;;;;;;;;;;;5000516;28;20300;-91
2023/06/24 14:15:18;;;;;;;;;;;;;;;;;;5008406;28;19944;-90
2023/06/24 14:18:31;;;;;;;;;;;;;;;;;;5005575;28;19925;-90
2023/06/24 14:21:31;;;;;;;;;;;;;;;;;;5038787;28;19932;-91
2023/06/24 14:28:00;;;;;;;;;;;;;;;;;;5030508;23;20281;-79
2023/06/24 14:30:27;;;;;;;;;;;;;;;;;;5021568;28;19929;-82
2023/06/24 14:32:55;;;;;;;;;;;;;;;;;;5023324;28;19929;-82
2023/06/24 14:35:22;;;;;;;;;;;;;;;;;;5025922;28;19933;-81
2023/06/24 14:37:55;;;;;;;;;;;;;;;;;;5015962;28;19936;-82
2023/06/24 14:40:22;;;;;;;;;;;;;;;;;;5019484;28;19933;-81
2023/06/24 14:42:55;;;;;;;;;;;;;;;;;;5023705;28;19933;-81
2023/06/24 14:45:22;;;;;;;;;;;;;;;;;;5023075;28;20293;-81
2023/06/24 14:47:50;;;;;;;;;;;;;;;;;;5054242;28;19929;-82
2023/06/24 14:50:18;;;;;;;;;;;;;;;;;;5020268;28;19952;-83
2023/06/24 14:52:45;;;;;;;;;;;;;;;;;;5031640;28;19936;-81
2023/06/24 14:55:13;;;;;;;;;;;;;;;;;;5018576;28;20408;-81
2023/06/24 14:57:46;;;;;;;;;;;;;;;;;;5022594;28;19929;-83
2023/06/24 15:00:13;;;;;;;;;;;;;;;;;;5033338;28;19929;-82
2023/06/24 15:02:41;;;;;;;;;;;;;;;;;;5023730;28;19929;-82
2023/06/24 15:05:14;;;;;;;;;;;;;;;;;;5036017;28;21002;-77
2023/06/24 15:07:46;;;;;;;;;;;;;;;;;;5039944;28;19929;-81
2023/06/24 15:10:14;;;;;;;;;;;;;;;;;;5025493;28;20405;-81
2023/06/24 15:12:47;;;;;;;;;;;;;;;;;;5031552;28;19929;-94
2023/06/24 15:15:14;;;;;;;;;;;;;;;;;;5028311;28;19929;-88
2023/06/24 15:17:45;;;;;;;;;;;;;;;;;;5027809;28;21608;-91
2023/06/24 15:20:12;;;;;;;;;;;;;;;;;;5029072;28;19955;-90
2023/06/24 15:22:40;;;;;;;;;;;;;;;;;;5031538;28;20308;-94
2023/06/24 15:25:07;;;;;;;;;;;;;;;;;;5030809;28;19937;-88
2023/06/24 15:27:35;;;;;;;;;;;;;;;;;;5025477;28;19929;-87
2023/06/24 15:30:03;;;;;;;;;;;;;;;;;;5031822;28;19936;-92
2023/06/24 15:32:30;;;;;;;;;;;;;;;;;;5032665;28;19936;-89
2023/06/24 15:35:03;;;;;;;;;;;;;;;;;;5029532;28;19929;-91
2023/06/24 15:37:31;;;;;;;;;;;;;;;;;;5025177;28;19929;-91
2023/06/24 15:39:59;;;;;;;;;;;;;;;;;;5031492;28;19979;-94
2023/06/24 15:42:26;;;;;;;;;;;;;;;;;;5036787;28;19925;-91
2023/06/24 15:44:54;;;;;;;;;;;;;;;;;;5034189;28;19925;-92
2023/06/24 15:47:22;;;;;;;;;;;;;;;;;;5037352;28;19925;-92
2023/06/24 15:49:51;;;;;;;;;;;;;;;;;;5030937;28;19932;-93
2023/06/24 15:52:19;;;;;;;;;;;;;;;;;;5027908;28;19949;-92
2023/06/24 15:54:46;;;;;;;;;;;;;;;;;;5031250;28;19929;-94
2023/06/24 15:57:14;;;;;;;;;;;;;;;;;;5025053;28;19929;-91
2023/06/24 15:59:42;;;;;;;;;;;;;;;;;;5019711;28;19951;-92
2023/06/24 16:02:09;;;;;;;;;;;;;;;;;;5027489;28;20381;-90
2023/06/24 16:04:37;;;;;;;;;;;;;;;;;;5020423;28;19936;-92
2023/06/24 16:07:05;;;;;;;;;;;;;;;;;;5025527;28;19929;-89
2023/06/24 16:09:33;;;;;;;;;;;;;;;;;;5021418;28;20381;-92
2023/06/24 16:12:01;;;;;;;;;;;;;;;;;;5024725;28;19926;-93
2023/06/24 16:14:28;;;;;;;;;;;;;;;;;;5039576;28;19932;-87
2023/06/24 16:16:56;;;;;;;;;;;;;;;;;;5029638;28;19929;-92
2023/06/24 16:19:24;;;;;;;;;;;;;;;;;;5027939;28;20313;-93
2023/06/24 16:21:52;;;;;;;;;;;;;;;;;;5026234;28;19940;-92
2023/06/24 16:24:19;;;;;;;;;;;;;;;;;;5030823;28;19925;-87
2023/06/24 16:26:47;;;;;;;;;;;;;;;;;;5030277;28;20418;-90
2023/06/24 16:29:14;;;;;;;;;;;;;;;;;;5027736;28;19929;-91
2023/06/24 16:31:42;;;;;;;;;;;;;;;;;;5027155;28;19929;-91
2023/06/24 16:34:10;;;;;;;;;;;;;;;;;;5023398;28;19934;-94
2023/06/24 16:36:37;;;;;;;;;;;;;;;;;;5027825;28;20296;-93
2023/06/24 16:39:06;;;;;;;;;;;;;;;;;;5029593;28;20304;-93
2023/06/24 16:41:33;;;;;;;;;;;;;;;;;;5028760;28;19936;-81
2023/06/24 16:44:06;;;;;;;;;;;;;;;;;;5020350;28;20933;-82
2023/06/24 16:46:34;;;;;;;;;;;;;;;;;;5020842;28;19930;-92
2023/06/24 16:49:06;;;;;;;;;;;;;;;;;;5006717;28;19933;-89
2023/06/24 16:51:33;;;;;;;;;;;;;;;;;;5021481;28;20373;-88
2023/06/24 16:54:04;;;;;;;;;;;;;;;;;;5008058;28;19944;-90
2023/06/24 16:56:32;;;;;;;;;;;;;;;;;;5012267;28;19944;-87
2023/06/24 16:59:00;;;;;;;;;;;;;;;;;;5009756;28;19944;-88
2023/06/24 17:01:33;;;;;;;;;;;;;;;;;;5024555;28;19925;-88
2023/06/24 17:04:01;;;;;;;;;;;;;;;;;;4995951;28;20389;-88
2023/06/24 17:06:29;;;;;;;;;;;;;;;;;;5007561;28;19933;-89
2023/06/24 17:08:57;;;;;;;;;;;;;;;;;;5012216;28;19932;-88
2023/06/24 17:11:25;;;;;;;;;;;;;;;;;;5001313;28;19933;-89
2023/06/24 17:13:52;;;;;;;;;;;;;;;;;;5028293;28;19944;-89
2023/06/24 17:16:38;;;;;;;;;;;;;;;;;;5018073;28;19941;-88
2023/06/24 17:19:06;;;;;;;;;;;;;;;;;;5004947;28;19932;-89
2023/06/24 17:21:36;;;;;;;;;;;;;;;;;;5021151;28;19933;-91
2023/06/24 17:24:05;;;;;;;;;;;;;;;;;;5015286;28;19933;-88
2023/06/24 17:26:33;;;;;;;;;;;;;;;;;;5006875;28;19940;-91
2023/06/24 17:29:00;;;;;;;;;;;;;;;;;;5007095;28;19944;-92
2023/06/24 17:31:28;;;;;;;;;;;;;;;;;;5008047;28;21242;-89
2023/06/24 17:33:56;;;;;;;;;;;;;;;;;;5027743;28;19940;-92
2023/06/24 17:36:23;;;;;;;;;;;;;;;;;;5011109;28;19933;-87
2023/06/24 17:38:51;;;;;;;;;;;;;;;;;;5008589;28;19933;-88
2023/06/24 17:41:22;;;;;;;;;;;;;;;;;;5023740;28;19940;-89
2023/06/24 17:43:50;;;;;;;;;;;;;;;;;;5011956;28;19944;-90
2023/06/24 17:46:17;;;;;;;;;;;;;;;;;;5022881;28;19952;-92